Saint-Constant, Canada
Current Conditions -  °F | °C
As of 3:00 PM on Friday 19 Dec 2014 (Local Time) from CYUL Reporting Station
Few Clouds Few Clouds  
Wind Chill: 12°   Ceiling: Unl
Heat Index: 23°   Visibility: 15mi
Dew Point: 14°   Wind: 12mph
Humidity: 68%   Direction: 250°WSW
Pressure: 30.12"   Gusts: NA
Location:  45.37°N, 73.57°W
Report Text: CYUL 192000Z 25010KT 15SM FEW020 M05/M10 A3012 RMK SC1 SC TR SLP202
Loading
Personal Weather Stations






























Interactive Weather Map New forecast layout! Learn more

10-Day Weather Forecast

Advertisements
Track Severe Weather on mobile